sensor_id;sensor_type;location;lat;lon;timestamp;temperature;humidity
3256;DHT22;1640;48.504;9.224;2022-09-27T00:01:41;10.50;99.90
3256;DHT22;1640;48.504;9.224;2022-09-27T00:04:10;10.60;99.90
3256;DHT22;1640;48.504;9.224;2022-09-27T00:06:38;10.60;99.90
3256;DHT22;1640;48.504;9.224;2022-09-27T00:09:05;10.60;99.90
3256;DHT22;1640;48.504;9.224;2022-09-27T00:11:35;10.50;99.90
3256;DHT22;1640;48.504;9.224;2022-09-27T00:14:05;10.60;99.90
3256;DHT22;1640;48.504;9.224;2022-09-27T00:16:36;10.50;99.90
3256;DHT22;1640;48.504;9.224;2022-09-27T00:19:05;10.50;99.90
3256;DHT22;1640;48.504;9.224;2022-09-27T00:21:33;10.50;99.90
3256;DHT22;1640;48.504;9.224;2022-09-27T00:24:02;10.50;99.90
3256;DHT22;1640;48.504;9.224;2022-09-27T00:26:29;10.50;99.90
3256;DHT22;1640;48.504;9.224;2022-09-27T00:28:58;10.50;99.90
3256;DHT22;1640;48.504;9.224;2022-09-27T00:31:27;10.50;99.90
3256;DHT22;1640;48.504;9.224;2022-09-27T00:33:56;10.60;99.90
3256;DHT22;1640;48.504;9.224;2022-09-27T00:36:24;10.60;99.90
3256;DHT22;1640;48.504;9.224;2022-09-27T00:38:52;10.60;99.90
3256;DHT22;1640;48.504;9.224;2022-09-27T00:41:22;10.60;99.90
3256;DHT22;1640;48.504;9.224;2022-09-27T00:43:51;10.60;99.90
3256;DHT22;1640;48.504;9.224;2022-09-27T00:46:25;10.60;99.90
3256;DHT22;1640;48.504;9.224;2022-09-27T00:49:03;10.60;99.90
3256;DHT22;1640;48.504;9.224;2022-09-27T00:51:33;10.60;99.90
3256;DHT22;1640;48.504;9.224;2022-09-27T00:54:04;10.60;99.90
3256;DHT22;1640;48.504;9.224;2022-09-27T00:56:35;10.70;99.90
3256;DHT22;1640;48.504;9.224;2022-09-27T00:59:15;10.70;99.90
3256;DHT22;1640;48.504;9.224;2022-09-27T01:01:45;10.70;99.90
3256;DHT22;1640;48.504;9.224;2022-09-27T01:04:17;10.80;99.90
3256;DHT22;1640;48.504;9.224;2022-09-27T01:06:47;10.80;99.90
3256;DHT22;1640;48.504;9.224;2022-09-27T01:09:15;10.90;99.90
3256;DHT22;1640;48.504;9.224;2022-09-27T01:11:46;10.90;99.90
3256;DHT22;1640;48.504;9.224;2022-09-27T01:14:27;10.90;99.90
3256;DHT22;1640;48.504;9.224;2022-09-27T01:17:08;10.90;99.90
3256;DHT22;1640;48.504;9.224;2022-09-27T01:22:43;11.00;99.90
3256;DHT22;1640;48.504;9.224;2022-09-27T01:25:33;11.00;99.90
3256;DHT22;1640;48.504;9.224;2022-09-27T01:28:20;11.00;99.90
3256;DHT22;1640;48.504;9.224;2022-09-27T01:30:54;11.00;99.90
3256;DHT22;1640;48.504;9.224;2022-09-27T01:33:41;11.00;99.90
3256;DHT22;1640;48.504;9.224;2022-09-27T01:36:18;11.00;99.90
3256;DHT22;1640;48.504;9.224;2022-09-27T01:38:56;11.00;99.90
3256;DHT22;1640;48.504;9.224;2022-09-27T01:41:32;11.10;99.90
3256;DHT22;1640;48.504;9.224;2022-09-27T01:44:06;11.10;99.90
3256;DHT22;1640;48.504;9.224;2022-09-27T01:46:40;11.10;99.90
3256;DHT22;1640;48.504;9.224;2022-09-27T01:49:12;11.00;99.90
3256;DHT22;1640;48.504;9.224;2022-09-27T01:51:44;11.00;99.90
3256;DHT22;1640;48.504;9.224;2022-09-27T01:54:16;11.00;99.90
3256;DHT22;1640;48.504;9.224;2022-09-27T01:56:48;10.90;99.90
3256;DHT22;1640;48.504;9.224;2022-09-27T01:59:19;10.80;99.90
3256;DHT22;1640;48.504;9.224;2022-09-27T02:01:52;10.80;99.90
3256;DHT22;1640;48.504;9.224;2022-09-27T02:04:25;10.80;99.90
3256;DHT22;1640;48.504;9.224;2022-09-27T02:06:56;10.80;99.90
3256;DHT22;1640;48.504;9.224;2022-09-27T02:09:29;10.80;99.90
3256;DHT22;1640;48.504;9.224;2022-09-27T02:12:02;10.90;99.90
3256;DHT22;1640;48.504;9.224;2022-09-27T02:14:34;10.90;99.90
3256;DHT22;1640;48.504;9.224;2022-09-27T02:17:10;10.90;99.90
3256;DHT22;1640;48.504;9.224;2022-09-27T02:19:47;10.90;99.90
3256;DHT22;1640;48.504;9.224;2022-09-27T02:22:18;10.90;99.90
3256;DHT22;1640;48.504;9.224;2022-09-27T02:24:53;10.90;99.90
3256;DHT22;1640;48.504;9.224;2022-09-27T02:27:25;10.90;99.90
3256;DHT22;1640;48.504;9.224;2022-09-27T02:30:00;10.90;99.90
3256;DHT22;1640;48.504;9.224;2022-09-27T02:32:30;10.90;99.90
3256;DHT22;1640;48.504;9.224;2022-09-27T02:35:00;10.80;99.90
3256;DHT22;1640;48.504;9.224;2022-09-27T02:37:29;10.80;99.90
3256;DHT22;1640;48.504;9.224;2022-09-27T02:39:57;10.70;99.90
3256;DHT22;1640;48.504;9.224;2022-09-27T02:42:24;10.60;99.90
3256;DHT22;1640;48.504;9.224;2022-09-27T02:44:52;10.50;99.90
3256;DHT22;1640;48.504;9.224;2022-09-27T02:47:32;10.50;99.90
3256;DHT22;1640;48.504;9.224;2022-09-27T02:50:14;10.50;99.90
3256;DHT22;1640;48.504;9.224;2022-09-27T02:52:52;10.50;99.90
3256;DHT22;1640;48.504;9.224;2022-09-27T02:55:27;10.60;99.90
3256;DHT22;1640;48.504;9.224;2022-09-27T02:58:03;10.60;99.90
3256;DHT22;1640;48.504;9.224;2022-09-27T03:00:38;10.60;99.90
3256;DHT22;1640;48.504;9.224;2022-09-27T03:03:13;10.60;99.90
3256;DHT22;1640;48.504;9.224;2022-09-27T03:05:47;10.50;99.90
3256;DHT22;1640;48.504;9.224;2022-09-27T03:08:18;10.50;99.90
3256;DHT22;1640;48.504;9.224;2022-09-27T03:10:45;10.40;99.90
3256;DHT22;1640;48.504;9.224;2022-09-27T03:13:13;10.40;99.90
3256;DHT22;1640;48.504;9.224;2022-09-27T03:15:40;10.40;99.90
3256;DHT22;1640;48.504;9.224;2022-09-27T03:18:09;10.40;99.90
3256;DHT22;1640;48.504;9.224;2022-09-27T03:20:37;10.50;99.90
3256;DHT22;1640;48.504;9.224;2022-09-27T03:23:04;10.50;99.90
3256;DHT22;1640;48.504;9.224;2022-09-27T03:25:32;10.40;99.90
3256;DHT22;1640;48.504;9.224;2022-09-27T03:28:00;10.50;99.90
3256;DHT22;1640;48.504;9.224;2022-09-27T03:30:27;10.40;99.90
3256;DHT22;1640;48.504;9.224;2022-09-27T03:32:55;10.30;99.90
3256;DHT22;1640;48.504;9.224;2022-09-27T03:35:24;10.30;99.90
3256;DHT22;1640;48.504;9.224;2022-09-27T03:37:51;10.30;99.90
3256;DHT22;1640;48.504;9.224;2022-09-27T03:40:19;10.30;99.90
3256;DHT22;1640;48.504;9.224;2022-09-27T03:42:46;10.40;99.90
3256;DHT22;1640;48.504;9.224;2022-09-27T03:45:15;10.30;99.90
3256;DHT22;1640;48.504;9.224;2022-09-27T03:47:43;10.40;99.90
3256;DHT22;1640;48.504;9.224;2022-09-27T03:50:11;10.40;99.90
3256;DHT22;1640;48.504;9.224;2022-09-27T03:52:41;10.50;99.90
3256;DHT22;1640;48.504;9.224;2022-09-27T03:55:09;10.50;99.90
3256;DHT22;1640;48.504;9.224;2022-09-27T03:57:37;10.40;99.90
3256;DHT22;1640;48.504;9.224;2022-09-27T04:00:06;10.40;99.90
3256;DHT22;1640;48.504;9.224;2022-09-27T04:02:34;10.40;99.90
3256;DHT22;1640;48.504;9.224;2022-09-27T04:05:01;10.40;99.90
3256;DHT22;1640;48.504;9.224;2022-09-27T04:07:29;10.50;99.90
3256;DHT22;1640;48.504;9.224;2022-09-27T04:09:58;10.50;99.90
3256;DHT22;1640;48.504;9.224;2022-09-27T04:12:25;10.40;99.90
3256;DHT22;1640;48.504;9.224;2022-09-27T04:14:53;10.30;99.90
3256;DHT22;1640;48.504;9.224;2022-09-27T04:17:21;10.40;99.90
3256;DHT22;1640;48.504;9.224;2022-09-27T04:19:50;10.40;99.90
3256;DHT22;1640;48.504;9.224;2022-09-27T04:22:18;10.40;99.90
3256;DHT22;1640;48.504;9.224;2022-09-27T04:24:45;10.40;99.90
3256;DHT22;1640;48.504;9.224;2022-09-27T04:27:14;10.40;99.90
3256;DHT22;1640;48.504;9.224;2022-09-27T04:29:42;10.30;99.90
3256;DHT22;1640;48.504;9.224;2022-09-27T04:32:11;10.40;99.90
3256;DHT22;1640;48.504;9.224;2022-09-27T04:34:38;10.30;99.90
3256;DHT22;1640;48.504;9.224;2022-09-27T04:37:24;10.30;99.90
3256;DHT22;1640;48.504;9.224;2022-09-27T04:39:52;10.20;99.90
3256;DHT22;1640;48.504;9.224;2022-09-27T04:42:20;10.20;99.90
3256;DHT22;1640;48.504;9.224;2022-09-27T04:44:48;10.20;99.90
3256;DHT22;1640;48.504;9.224;2022-09-27T04:47:15;10.20;99.90
3256;DHT22;1640;48.504;9.224;2022-09-27T04:49:46;10.20;99.90
3256;DHT22;1640;48.504;9.224;2022-09-27T04:52:14;10.10;99.90
3256;DHT22;1640;48.504;9.224;2022-09-27T04:54:42;10.00;99.90
3256;DHT22;1640;48.504;9.224;2022-09-27T04:57:09;9.90;99.90
3256;DHT22;1640;48.504;9.224;2022-09-27T04:59:41;9.90;99.90
3256;DHT22;1640;48.504;9.224;2022-09-27T05:02:08;9.70;99.90
3256;DHT22;1640;48.504;9.224;2022-09-27T05:04:36;9.70;99.90
3256;DHT22;1640;48.504;9.224;2022-09-27T05:07:03;9.60;99.90
3256;DHT22;1640;48.504;9.224;2022-09-27T05:09:31;9.60;99.90
3256;DHT22;1640;48.504;9.224;2022-09-27T05:11:58;9.50;99.90
3256;DHT22;1640;48.504;9.224;2022-09-27T05:14:26;9.50;99.90
3256;DHT22;1640;48.504;9.224;2022-09-27T05:16:55;9.40;99.90
3256;DHT22;1640;48.504;9.224;2022-09-27T05:19:23;9.40;99.90
3256;DHT22;1640;48.504;9.224;2022-09-27T05:21:50;9.30;99.90
3256;DHT22;1640;48.504;9.224;2022-09-27T05:24:18;9.30;99.90
3256;DHT22;1640;48.504;9.224;2022-09-27T05:26:46;9.40;99.90
3256;DHT22;1640;48.504;9.224;2022-09-27T05:29:13;9.40;99.90
3256;DHT22;1640;48.504;9.224;2022-09-27T05:31:42;9.50;99.90
3256;DHT22;1640;48.504;9.224;2022-09-27T05:34:11;9.50;99.90
3256;DHT22;1640;48.504;9.224;2022-09-27T05:36:39;9.40;99.90
3256;DHT22;1640;48.504;9.224;2022-09-27T05:39:06;9.50;99.90
3256;DHT22;1640;48.504;9.224;2022-09-27T05:41:34;9.50;99.90
3256;DHT22;1640;48.504;9.224;2022-09-27T05:44:01;9.50;99.90
3256;DHT22;1640;48.504;9.224;2022-09-27T05:46:29;9.40;99.90
3256;DHT22;1640;48.504;9.224;2022-09-27T05:48:56;9.40;99.90
3256;DHT22;1640;48.504;9.224;2022-09-27T05:51:26;9.40;99.90
3256;DHT22;1640;48.504;9.224;2022-09-27T05:53:54;9.40;99.90
3256;DHT22;1640;48.504;9.224;2022-09-27T05:56:21;9.30;99.90
3256;DHT22;1640;48.504;9.224;2022-09-27T05:58:49;9.30;99.90
3256;DHT22;1640;48.504;9.224;2022-09-27T06:01:17;9.40;99.90
3256;DHT22;1640;48.504;9.224;2022-09-27T06:03:45;9.30;99.90
3256;DHT22;1640;48.504;9.224;2022-09-27T06:06:13;9.30;99.90
3256;DHT22;1640;48.504;9.224;2022-09-27T06:08:42;9.40;99.90
3256;DHT22;1640;48.504;9.224;2022-09-27T06:11:11;9.20;99.90
3256;DHT22;1640;48.504;9.224;2022-09-27T06:13:39;9.20;99.90
3256;DHT22;1640;48.504;9.224;2022-09-27T06:16:08;9.10;99.90
3256;DHT22;1640;48.504;9.224;2022-09-27T06:18:36;9.00;99.90
3256;DHT22;1640;48.504;9.224;2022-09-27T06:21:05;8.90;99.90
3256;DHT22;1640;48.504;9.224;2022-09-27T06:23:33;8.90;99.90
3256;DHT22;1640;48.504;9.224;2022-09-27T06:26:03;8.80;99.90
3256;DHT22;1640;48.504;9.224;2022-09-27T06:28:31;8.90;99.90
3256;DHT22;1640;48.504;9.224;2022-09-27T06:31:00;8.90;99.90
3256;DHT22;1640;48.504;9.224;2022-09-27T06:33:27;8.90;99.90
3256;DHT22;1640;48.504;9.224;2022-09-27T06:35:55;9.00;99.90
3256;DHT22;1640;48.504;9.224;2022-09-27T06:38:23;9.00;99.90
3256;DHT22;1640;48.504;9.224;2022-09-27T06:40:51;9.10;99.90
3256;DHT22;1640;48.504;9.224;2022-09-27T06:43:20;9.20;99.90
3256;DHT22;1640;48.504;9.224;2022-09-27T06:45:47;9.20;99.90
3256;DHT22;1640;48.504;9.224;2022-09-27T06:48:15;9.20;99.90
3256;DHT22;1640;48.504;9.224;2022-09-27T06:50:44;9.20;99.90
3256;DHT22;1640;48.504;9.224;2022-09-27T06:53:14;9.30;99.90
3256;DHT22;1640;48.504;9.224;2022-09-27T06:55:42;9.40;99.90
3256;DHT22;1640;48.504;9.224;2022-09-27T06:58:11;9.40;99.90
3256;DHT22;1640;48.504;9.224;2022-09-27T07:00:57;9.40;99.90
3256;DHT22;1640;48.504;9.224;2022-09-27T07:03:25;9.30;99.90
3256;DHT22;1640;48.504;9.224;2022-09-27T07:05:57;9.30;99.90
3256;DHT22;1640;48.504;9.224;2022-09-27T07:08:26;9.30;99.90
3256;DHT22;1640;48.504;9.224;2022-09-27T07:10:54;9.40;99.90
3256;DHT22;1640;48.504;9.224;2022-09-27T07:13:22;9.60;99.90
3256;DHT22;1640;48.504;9.224;2022-09-27T07:15:51;9.60;99.90
3256;DHT22;1640;48.504;9.224;2022-09-27T07:18:20;9.50;99.90
3256;DHT22;1640;48.504;9.224;2022-09-27T07:20:48;9.60;99.90
3256;DHT22;1640;48.504;9.224;2022-09-27T07:23:16;9.60;99.90
3256;DHT22;1640;48.504;9.224;2022-09-27T07:25:44;9.70;99.90
3256;DHT22;1640;48.504;9.224;2022-09-27T07:28:15;9.70;99.90
3256;DHT22;1640;48.504;9.224;2022-09-27T07:30:43;9.70;99.90
3256;DHT22;1640;48.504;9.224;2022-09-27T07:33:10;9.70;99.90
3256;DHT22;1640;48.504;9.224;2022-09-27T07:35:40;9.80;99.90
3256;DHT22;1640;48.504;9.224;2022-09-27T07:38:09;10.00;99.90
3256;DHT22;1640;48.504;9.224;2022-09-27T07:40:39;10.10;99.90
3256;DHT22;1640;48.504;9.224;2022-09-27T07:43:07;10.10;99.90
3256;DHT22;1640;48.504;9.224;2022-09-27T07:45:35;10.20;99.90
3256;DHT22;1640;48.504;9.224;2022-09-27T07:48:04;10.30;99.90
3256;DHT22;1640;48.504;9.224;2022-09-27T07:50:32;10.50;99.90
3256;DHT22;1640;48.504;9.224;2022-09-27T07:53:01;10.60;3.70
3256;DHT22;1640;48.504;9.224;2022-09-27T07:55:30;10.60;2.70
3256;DHT22;1640;48.504;9.224;2022-09-27T07:58:05;10.70;12.00
3256;DHT22;1640;48.504;9.224;2022-09-27T08:00:34;10.60;2.90
3256;DHT22;1640;48.504;9.224;2022-09-27T08:03:05;10.60;6.10
3256;DHT22;1640;48.504;9.224;2022-09-27T08:05:34;10.50;99.90
3256;DHT22;1640;48.504;9.224;2022-09-27T08:08:04;10.60;5.70
3256;DHT22;1640;48.504;9.224;2022-09-27T08:10:32;10.70;6.50
3256;DHT22;1640;48.504;9.224;2022-09-27T08:13:01;10.90;8.30
3256;DHT22;1640;48.504;9.224;2022-09-27T08:15:30;11.10;17.60
3256;DHT22;1640;48.504;9.224;2022-09-27T08:17:59;11.30;22.40
3256;DHT22;1640;48.504;9.224;2022-09-27T08:20:26;11.10;25.80
3256;DHT22;1640;48.504;9.224;2022-09-27T08:22:54;11.00;21.10
3256;DHT22;1640;48.504;9.224;2022-09-27T08:25:23;11.10;16.10
3256;DHT22;1640;48.504;9.224;2022-09-27T08:27:54;11.00;18.80
3256;DHT22;1640;48.504;9.224;2022-09-27T08:30:23;11.10;23.70
3256;DHT22;1640;48.504;9.224;2022-09-27T08:32:54;11.10;23.70
3256;DHT22;1640;48.504;9.224;2022-09-27T08:35:22;11.10;16.50
3256;DHT22;1640;48.504;9.224;2022-09-27T08:37:54;11.10;22.30
3256;DHT22;1640;48.504;9.224;2022-09-27T08:40:26;11.00;20.30
3256;DHT22;1640;48.504;9.224;2022-09-27T08:43:02;10.90;19.80
3256;DHT22;1640;48.504;9.224;2022-09-27T08:45:38;10.90;23.40
3256;DHT22;1640;48.504;9.224;2022-09-27T08:48:09;11.20;27.30
3256;DHT22;1640;48.504;9.224;2022-09-27T08:50:40;11.40;31.80
3256;DHT22;1640;48.504;9.224;2022-09-27T08:53:17;11.60;41.90
3256;DHT22;1640;48.504;9.224;2022-09-27T08:55:49;11.60;43.60
3256;DHT22;1640;48.504;9.224;2022-09-27T08:58:23;11.80;45.60
3256;DHT22;1640;48.504;9.224;2022-09-27T09:00:54;11.80;48.60
3256;DHT22;1640;48.504;9.224;2022-09-27T09:03:24;11.60;40.00
3256;DHT22;1640;48.504;9.224;2022-09-27T09:06:06;10.80;21.70
3256;DHT22;1640;48.504;9.224;2022-09-27T09:08:41;10.10;99.90
3256;DHT22;1640;48.504;9.224;2022-09-27T09:11:23;9.60;99.90
3256;DHT22;1640;48.504;9.224;2022-09-27T09:14:22;9.40;99.90
3256;DHT22;1640;48.504;9.224;2022-09-27T09:17:03;9.20;99.90
3256;DHT22;1640;48.504;9.224;2022-09-27T09:19:51;9.00;99.90
3256;DHT22;1640;48.504;9.224;2022-09-27T09:22:32;8.70;99.90
3256;DHT22;1640;48.504;9.224;2022-09-27T09:25:14;8.60;99.90
3256;DHT22;1640;48.504;9.224;2022-09-27T09:27:52;8.60;99.90
3256;DHT22;1640;48.504;9.224;2022-09-27T09:30:22;8.70;99.90
3256;DHT22;1640;48.504;9.224;2022-09-27T09:33:01;8.50;99.90
3256;DHT22;1640;48.504;9.224;2022-09-27T09:35:37;8.60;99.90
3256;DHT22;1640;48.504;9.224;2022-09-27T09:38:11;8.70;99.90
3256;DHT22;1640;48.504;9.224;2022-09-27T09:40:43;8.90;99.90
3256;DHT22;1640;48.504;9.224;2022-09-27T09:43:19;9.20;99.90
3256;DHT22;1640;48.504;9.224;2022-09-27T09:45:50;9.50;99.90
3256;DHT22;1640;48.504;9.224;2022-09-27T09:48:26;9.60;99.90
3256;DHT22;1640;48.504;9.224;2022-09-27T09:50:58;9.60;99.90
3256;DHT22;1640;48.504;9.224;2022-09-27T09:53:35;9.70;99.90
3256;DHT22;1640;48.504;9.224;2022-09-27T09:56:06;9.70;99.90
3256;DHT22;1640;48.504;9.224;2022-09-27T09:58:41;9.80;99.90
3256;DHT22;1640;48.504;9.224;2022-09-27T10:01:22;10.00;99.90
3256;DHT22;1640;48.504;9.224;2022-09-27T10:03:51;10.10;99.90
3256;DHT22;1640;48.504;9.224;2022-09-27T10:06:20;10.20;99.90
3256;DHT22;1640;48.504;9.224;2022-09-27T10:08:47;10.40;99.90
3256;DHT22;1640;48.504;9.224;2022-09-27T10:11:23;10.50;99.90
3256;DHT22;1640;48.504;9.224;2022-09-27T10:13:53;10.50;99.90
3256;DHT22;1640;48.504;9.224;2022-09-27T10:16:22;10.60;99.90
3256;DHT22;1640;48.504;9.224;2022-09-27T10:18:54;10.60;99.90
3256;DHT22;1640;48.504;9.224;2022-09-27T10:21:26;10.70;99.90
3256;DHT22;1640;48.504;9.224;2022-09-27T10:24:04;10.70;99.90
3256;DHT22;1640;48.504;9.224;2022-09-27T10:26:34;10.80;99.90
3256;DHT22;1640;48.504;9.224;2022-09-27T10:29:23;10.90;99.90
3256;DHT22;1640;48.504;9.224;2022-09-27T10:31:51;11.20;99.90
3256;DHT22;1640;48.504;9.224;2022-09-27T10:34:24;11.50;99.90
3256;DHT22;1640;48.504;9.224;2022-09-27T10:37:13;11.80;5.70
3256;DHT22;1640;48.504;9.224;2022-09-27T10:39:43;12.00;28.70
3256;DHT22;1640;48.504;9.224;2022-09-27T10:42:31;11.80;18.50
3256;DHT22;1640;48.504;9.224;2022-09-27T10:45:25;11.90;14.10
3256;DHT22;1640;48.504;9.224;2022-09-27T10:47:53;12.30;34.10
3256;DHT22;1640;48.504;9.224;2022-09-27T10:50:23;12.40;48.60
3256;DHT22;1640;48.504;9.224;2022-09-27T10:53:01;12.60;52.70
3256;DHT22;1640;48.504;9.224;2022-09-27T10:55:34;12.40;47.50
3256;DHT22;1640;48.504;9.224;2022-09-27T10:58:02;12.40;50.40
3256;DHT22;1640;48.504;9.224;2022-09-27T11:00:33;12.30;56.20
3256;DHT22;1640;48.504;9.224;2022-09-27T11:03:03;12.40;53.50
3256;DHT22;1640;48.504;9.224;2022-09-27T11:05:34;12.50;55.10
3256;DHT22;1640;48.504;9.224;2022-09-27T11:08:21;12.50;46.00
3256;DHT22;1640;48.504;9.224;2022-09-27T11:11:01;12.50;59.50
3256;DHT22;1640;48.504;9.224;2022-09-27T11:13:29;12.80;57.30
3256;DHT22;1640;48.504;9.224;2022-09-27T11:16:17;12.90;61.40
3256;DHT22;1640;48.504;9.224;2022-09-27T11:18:54;12.90;65.70
3256;DHT22;1640;48.504;9.224;2022-09-27T11:21:30;12.70;63.00
3256;DHT22;1640;48.504;9.224;2022-09-27T11:24:12;12.60;68.00
3256;DHT22;1640;48.504;9.224;2022-09-27T11:26:48;12.60;65.00
3256;DHT22;1640;48.504;9.224;2022-09-27T11:29:23;12.70;69.00
3256;DHT22;1640;48.504;9.224;2022-09-27T11:32:08;12.90;65.90
3256;DHT22;1640;48.504;9.224;2022-09-27T11:34:51;12.90;66.20
3256;DHT22;1640;48.504;9.224;2022-09-27T11:37:26;13.10;68.00
3256;DHT22;1640;48.504;9.224;2022-09-27T11:40:04;13.10;67.50
3256;DHT22;1640;48.504;9.224;2022-09-27T11:43:03;13.20;71.50
3256;DHT22;1640;48.504;9.224;2022-09-27T11:45:43;13.10;70.00
3256;DHT22;1640;48.504;9.224;2022-09-27T11:48:22;13.30;69.50
3256;DHT22;1640;48.504;9.224;2022-09-27T11:51:00;13.70;70.90
3256;DHT22;1640;48.504;9.224;2022-09-27T11:53:57;14.00;73.90
3256;DHT22;1640;48.504;9.224;2022-09-27T11:56:36;14.20;72.20
3256;DHT22;1640;48.504;9.224;2022-09-27T11:59:21;14.20;72.50
3256;DHT22;1640;48.504;9.224;2022-09-27T12:01:55;14.10;71.10
3256;DHT22;1640;48.504;9.224;2022-09-27T12:04:48;14.00;73.40
3256;DHT22;1640;48.504;9.224;2022-09-27T12:07:21;13.60;72.10
3256;DHT22;1640;48.504;9.224;2022-09-27T12:10:01;13.20;70.90
3256;DHT22;1640;48.504;9.224;2022-09-27T12:12:31;13.00;68.20
3256;DHT22;1640;48.504;9.224;2022-09-27T12:15:01;12.90;69.30
3256;DHT22;1640;48.504;9.224;2022-09-27T12:17:32;12.70;67.50
3256;DHT22;1640;48.504;9.224;2022-09-27T12:20:06;12.50;69.60
3256;DHT22;1640;48.504;9.224;2022-09-27T12:22:47;12.40;69.90
3256;DHT22;1640;48.504;9.224;2022-09-27T12:25:17;12.20;65.60
3256;DHT22;1640;48.504;9.224;2022-09-27T12:27:48;12.10;68.20
3256;DHT22;1640;48.504;9.224;2022-09-27T12:30:17;12.00;67.50
3256;DHT22;1640;48.504;9.224;2022-09-27T12:32:50;11.80;60.00
3256;DHT22;1640;48.504;9.224;2022-09-27T12:35:23;11.50;56.30
3256;DHT22;1640;48.504;9.224;2022-09-27T12:37:58;11.40;48.70
3256;DHT22;1640;48.504;9.224;2022-09-27T12:40:29;11.30;41.80
3256;DHT22;1640;48.504;9.224;2022-09-27T12:43:01;11.10;23.90
3256;DHT22;1640;48.504;9.224;2022-09-27T12:45:38;11.00;7.20
3256;DHT22;1640;48.504;9.224;2022-09-27T12:48:13;10.90;99.90
3256;DHT22;1640;48.504;9.224;2022-09-27T12:50:52;10.70;99.90
3256;DHT22;1640;48.504;9.224;2022-09-27T12:53:24;10.50;99.90
3256;DHT22;1640;48.504;9.224;2022-09-27T12:56:08;10.70;99.90
3256;DHT22;1640;48.504;9.224;2022-09-27T12:59:06;10.90;99.90
3256;DHT22;1640;48.504;9.224;2022-09-27T13:01:48;11.10;99.90
3256;DHT22;1640;48.504;9.224;2022-09-27T13:04:42;11.20;99.90
3256;DHT22;1640;48.504;9.224;2022-09-27T13:07:25;11.20;99.90
3256;DHT22;1640;48.504;9.224;2022-09-27T13:10:21;11.30;99.90
3256;DHT22;1640;48.504;9.224;2022-09-27T13:12:53;11.40;99.90
3256;DHT22;1640;48.504;9.224;2022-09-27T13:15:25;11.50;99.90
3256;DHT22;1640;48.504;9.224;2022-09-27T13:17:55;11.50;99.90
3256;DHT22;1640;48.504;9.224;2022-09-27T13:20:42;11.60;99.90
3256;DHT22;1640;48.504;9.224;2022-09-27T13:26:24;11.70;0.50
3256;DHT22;1640;48.504;9.224;2022-09-27T13:29:30;11.60;99.90
3256;DHT22;1640;48.504;9.224;2022-09-27T13:32:20;11.30;99.90
3256;DHT22;1640;48.504;9.224;2022-09-27T13:34:50;11.20;99.90
3256;DHT22;1640;48.504;9.224;2022-09-27T13:37:38;11.20;99.90
3256;DHT22;1640;48.504;9.224;2022-09-27T13:40:19;11.10;99.90
3256;DHT22;1640;48.504;9.224;2022-09-27T13:42:54;11.10;99.90
3256;DHT22;1640;48.504;9.224;2022-09-27T13:45:26;11.20;99.90
3256;DHT22;1640;48.504;9.224;2022-09-27T13:47:55;11.30;99.90
3256;DHT22;1640;48.504;9.224;2022-09-27T13:50:25;11.50;5.80
3256;DHT22;1640;48.504;9.224;2022-09-27T13:52:59;11.50;15.20
3256;DHT22;1640;48.504;9.224;2022-09-27T13:55:42;11.40;24.30
3256;DHT22;1640;48.504;9.224;2022-09-27T13:58:31;11.30;21.80
3256;DHT22;1640;48.504;9.224;2022-09-27T14:01:03;11.20;22.10
3256;DHT22;1640;48.504;9.224;2022-09-27T14:03:55;11.10;18.90
3256;DHT22;1640;48.504;9.224;2022-09-27T14:06:25;11.30;23.00
3256;DHT22;1640;48.504;9.224;2022-09-27T14:08:56;11.40;26.60
3256;DHT22;1640;48.504;9.224;2022-09-27T14:11:28;11.30;37.20
3256;DHT22;1640;48.504;9.224;2022-09-27T14:13:58;11.30;36.80
3256;DHT22;1640;48.504;9.224;2022-09-27T14:16:31;11.20;36.10
3256;DHT22;1640;48.504;9.224;2022-09-27T14:19:00;11.20;39.60
3256;DHT22;1640;48.504;9.224;2022-09-27T14:21:30;11.30;40.90
3256;DHT22;1640;48.504;9.224;2022-09-27T14:24:23;11.40;41.30
3256;DHT22;1640;48.504;9.224;2022-09-27T14:27:04;11.30;41.70
3256;DHT22;1640;48.504;9.224;2022-09-27T14:29:39;11.30;42.60
3256;DHT22;1640;48.504;9.224;2022-09-27T14:32:10;11.30;36.80
3256;DHT22;1640;48.504;9.224;2022-09-27T14:34:38;11.30;31.90
3256;DHT22;1640;48.504;9.224;2022-09-27T14:37:18;11.30;26.20
3256;DHT22;1640;48.504;9.224;2022-09-27T14:39:59;11.30;28.50
3256;DHT22;1640;48.504;9.224;2022-09-27T14:42:28;11.40;24.00
3256;DHT22;1640;48.504;9.224;2022-09-27T14:45:11;11.60;29.30
3256;DHT22;1640;48.504;9.224;2022-09-27T14:47:45;11.60;29.10
3256;DHT22;1640;48.504;9.224;2022-09-27T14:50:19;11.60;28.60
3256;DHT22;1640;48.504;9.224;2022-09-27T14:52:47;11.60;30.50
3256;DHT22;1640;48.504;9.224;2022-09-27T14:55:18;11.40;37.70
3256;DHT22;1640;48.504;9.224;2022-09-27T14:57:49;11.30;27.10
3256;DHT22;1640;48.504;9.224;2022-09-27T15:00:20;11.20;27.60
3256;DHT22;1640;48.504;9.224;2022-09-27T15:02:49;11.10;27.20
3256;DHT22;1640;48.504;9.224;2022-09-27T15:05:22;11.10;32.60
3256;DHT22;1640;48.504;9.224;2022-09-27T15:07:51;11.00;35.30
3256;DHT22;1640;48.504;9.224;2022-09-27T15:10:22;10.90;36.20
3256;DHT22;1640;48.504;9.224;2022-09-27T15:12:54;10.90;39.40
3256;DHT22;1640;48.504;9.224;2022-09-27T15:15:28;10.90;35.60
3256;DHT22;1640;48.504;9.224;2022-09-27T15:17:57;11.10;40.20
3256;DHT22;1640;48.504;9.224;2022-09-27T15:20:27;11.20;42.90
3256;DHT22;1640;48.504;9.224;2022-09-27T15:22:58;11.30;46.30
3256;DHT22;1640;48.504;9.224;2022-09-27T15:25:29;11.30;54.80
3256;DHT22;1640;48.504;9.224;2022-09-27T15:28:01;11.40;51.40
3256;DHT22;1640;48.504;9.224;2022-09-27T15:30:35;11.50;52.40
3256;DHT22;1640;48.504;9.224;2022-09-27T15:33:04;11.40;62.70
3256;DHT22;1640;48.504;9.224;2022-09-27T15:35:33;11.30;57.10
3256;DHT22;1640;48.504;9.224;2022-09-27T15:38:21;11.10;57.40
3256;DHT22;1640;48.504;9.224;2022-09-27T15:41:09;11.00;53.20
3256;DHT22;1640;48.504;9.224;2022-09-27T15:43:41;11.00;55.40
3256;DHT22;1640;48.504;9.224;2022-09-27T15:46:33;10.90;52.00
3256;DHT22;1640;48.504;9.224;2022-09-27T15:49:21;10.90;52.90
3256;DHT22;1640;48.504;9.224;2022-09-27T15:51:50;10.80;51.20
3256;DHT22;1640;48.504;9.224;2022-09-27T15:54:18;10.70;50.90
3256;DHT22;1640;48.504;9.224;2022-09-27T15:56:47;10.60;50.20
3256;DHT22;1640;48.504;9.224;2022-09-27T15:59:19;10.50;48.20
3256;DHT22;1640;48.504;9.224;2022-09-27T16:01:49;10.50;46.40
3256;DHT22;1640;48.504;9.224;2022-09-27T16:04:18;10.40;44.20
3256;DHT22;1640;48.504;9.224;2022-09-27T16:06:45;10.40;41.40
3256;DHT22;1640;48.504;9.224;2022-09-27T16:09:14;10.50;41.00
3256;DHT22;1640;48.504;9.224;2022-09-27T16:11:44;10.60;43.00
3256;DHT22;1640;48.504;9.224;2022-09-27T16:14:11;10.70;47.60
3256;DHT22;1640;48.504;9.224;2022-09-27T16:16:42;10.70;42.50
3256;DHT22;1640;48.504;9.224;2022-09-27T16:19:12;10.80;43.80
3256;DHT22;1640;48.504;9.224;2022-09-27T16:21:39;10.70;42.60
3256;DHT22;1640;48.504;9.224;2022-09-27T16:24:08;10.70;44.50
3256;DHT22;1640;48.504;9.224;2022-09-27T16:26:36;10.70;45.90
3256;DHT22;1640;48.504;9.224;2022-09-27T16:29:04;10.60;45.10
3256;DHT22;1640;48.504;9.224;2022-09-27T16:31:35;10.50;37.20
3256;DHT22;1640;48.504;9.224;2022-09-27T16:34:03;10.50;39.80
3256;DHT22;1640;48.504;9.224;2022-09-27T16:36:31;10.50;42.60
3256;DHT22;1640;48.504;9.224;2022-09-27T16:39:01;10.40;33.00
3256;DHT22;1640;48.504;9.224;2022-09-27T16:41:30;10.40;26.30
3256;DHT22;1640;48.504;9.224;2022-09-27T16:43:58;10.30;24.90
3256;DHT22;1640;48.504;9.224;2022-09-27T16:46:25;10.20;24.60